VG44 weather

Dickerson Port Heliport
Gloucester, Virginia, United States

Public forecast

Using degrees Fahrenheit for public forecast. Weather courtesy of forecast.io.

METAR (pilot weather report)

Closest report is Newport News Williamsburg International Airport, 7.3 nm (13.5 km) S. Retrieved 2019/07/21 05:54 UTC (8 minutes ago):

KPHF 210554Z AUTO 24008KT 10SM CLR 29/22 A2991 RMK AO2 SLP128 T02890222 10333 20289 57000

TAF (pilot weather forecast)

Closest forecast is Newport News Williamsburg International Airport, 7.3 nm (13.5 km) S. Retrieved 2019/07/21 06:22 UTC (0 seconds ago):

TAF KPHF 210520Z 2106/2206 24006KT P6SM SKC FM211600 24007KT P6SM SCT050 FM211900 23011KT P6SM SCT060 FM212300 24008KT P6SM SKC